WAT3159 KCLT-KOMA
Flight info
| Callsign | WAT3159 |
|---|---|
| Flight time | 2h 7m |
| Altitude | 34000 |
| Route | JOJJO5 CUBIM Q50 HELUB EMBRR WIDAM BAYLI ELYNA LMN MARWI4 |
| Aircraft | B739/M-SDE2E3FGHIRWXY/LB1 |
Departure
| Time | 2026-04-24 03:14 |
|---|---|
| Airport | Charlotte Douglas International Airport (KCLT) |
Arrival
| Time | 2026-04-24 05:22 |
|---|---|
| Airport | Eppley Airfield (KOMA) |
| Time | Latitude | Longitude | Altitude | Speed | Heading |
|---|---|---|---|---|---|
| 2026-04-24 02:47 | 35.21792 | -80.94480 | 731 ft | 0 kts | 288° |
| 2026-04-24 03:00 | 35.21787 | -80.94464 | 730 ft | 4 kts | 285° |
| 2026-04-24 03:00 | 35.21781 | -80.94433 | 730 ft | 4 kts | 272° |
| 2026-04-24 03:00 | 35.21785 | -80.94402 | 731 ft | 4 kts | 238° |
| 2026-04-24 03:01 | 35.21802 | -80.94384 | 729 ft | 4 kts | 180° |
| 2026-04-24 03:01 | 35.21811 | -80.94384 | 730 ft | 0 kts | 175° |
| 2026-04-24 03:05 | 35.21781 | -80.94381 | 730 ft | 7 kts | 175° |
| 2026-04-24 03:06 | 35.21732 | -80.94377 | 730 ft | 7 kts | 175° |
| 2026-04-24 03:06 | 35.21684 | -80.94379 | 731 ft | 7 kts | 199° |
| 2026-04-24 03:06 | 35.21644 | -80.94435 | 731 ft | 10 kts | 244° |
| 2026-04-24 03:06 | 35.21628 | -80.94519 | 731 ft | 10 kts | 267° |
| 2026-04-24 03:07 | 35.21624 | -80.94603 | 731 ft | 10 kts | 265° |
| 2026-04-24 03:07 | 35.21619 | -80.94685 | 731 ft | 10 kts | 265° |
| 2026-04-24 03:07 | 35.21614 | -80.94765 | 731 ft | 9 kts | 265° |
| 2026-04-24 03:07 | 35.21610 | -80.94843 | 731 ft | 9 kts | 266° |
| 2026-04-24 03:08 | 35.21605 | -80.94918 | 732 ft | 9 kts | 264° |
| 2026-04-24 03:08 | 35.21654 | -80.95024 | 732 ft | 8 kts | 351° |
| 2026-04-24 03:08 | 35.21722 | -80.95031 | 733 ft | 13 kts | 355° |
| 2026-04-24 03:09 | 35.21820 | -80.95039 | 733 ft | 14 kts | 356° |
| 2026-04-24 03:09 | 35.21915 | -80.95047 | 733 ft | 13 kts | 355° |
| 2026-04-24 03:09 | 35.22005 | -80.95055 | 733 ft | 13 kts | 356° |
| 2026-04-24 03:09 | 35.22093 | -80.95063 | 733 ft | 13 kts | 356° |
| 2026-04-24 03:10 | 35.22179 | -80.95070 | 733 ft | 12 kts | 355° |
| 2026-04-24 03:10 | 35.22263 | -80.95078 | 733 ft | 12 kts | 356° |
| 2026-04-24 03:10 | 35.22345 | -80.95085 | 733 ft | 12 kts | 355° |
| 2026-04-24 03:10 | 35.22437 | -80.95092 | 732 ft | 15 kts | 356° |
| 2026-04-24 03:11 | 35.22539 | -80.95101 | 732 ft | 14 kts | 356° |
| 2026-04-24 03:11 | 35.22636 | -80.95109 | 732 ft | 14 kts | 356° |
| 2026-04-24 03:11 | 35.22709 | -80.95124 | 732 ft | 9 kts | 328° |
| 2026-04-24 03:11 | 35.22731 | -80.95187 | 734 ft | 8 kts | 269° |
| 2026-04-24 03:12 | 35.22731 | -80.95191 | 734 ft | 0 kts | 269° |
| 2026-04-24 03:13 | 35.22727 | -80.95249 | 737 ft | 10 kts | 264° |
| 2026-04-24 03:13 | 35.22708 | -80.95310 | 738 ft | 7 kts | 202° |
| 2026-04-24 03:13 | 35.22631 | -80.95309 | 740 ft | 27 kts | 176° |
| 2026-04-24 03:13 | 35.22198 | -80.95272 | 741 ft | 96 kts | 175° |
| 2026-04-24 03:14 | 35.21326 | -80.95195 | 737 ft | 153 kts | 176° |
| 2026-04-24 03:14 | 35.20147 | -80.95094 | 963 ft | 177 kts | 176° |
| 2026-04-24 03:14 | 35.18888 | -80.94947 | 1545 ft | 187 kts | 176° |
| 2026-04-24 03:14 | 35.17641 | -80.94768 | 2372 ft | 179 kts | 176° |
| 2026-04-24 03:15 | 35.16362 | -80.94522 | 2723 ft | 196 kts | 175° |
| 2026-04-24 03:15 | 35.14944 | -80.94263 | 2877 ft | 216 kts | 175° |
| 2026-04-24 03:15 | 35.13391 | -80.93991 | 3023 ft | 234 kts | 175° |
| 2026-04-24 03:15 | 35.11774 | -80.93716 | 3404 ft | 230 kts | 175° |
| 2026-04-24 03:16 | 35.10193 | -80.93447 | 3984 ft | 231 kts | 175° |
| 2026-04-24 03:16 | 35.08597 | -80.93182 | 4598 ft | 232 kts | 175° |
| 2026-04-24 03:16 | 35.06949 | -80.92916 | 4924 ft | 250 kts | 175° |
| 2026-04-24 03:16 | 35.05181 | -80.92641 | 5340 ft | 259 kts | 175° |
| 2026-04-24 03:17 | 35.03389 | -80.92373 | 5981 ft | 261 kts | 175° |
| 2026-04-24 03:17 | 35.01578 | -80.92113 | 6599 ft | 263 kts | 175° |
| 2026-04-24 03:17 | 34.99752 | -80.91864 | 7197 ft | 265 kts | 175° |
| 2026-04-24 03:17 | 34.97913 | -80.91623 | 7802 ft | 267 kts | 175° |
| 2026-04-24 03:18 | 34.96046 | -80.91399 | 8326 ft | 272 kts | 179° |
| 2026-04-24 03:18 | 34.94182 | -80.91782 | 8838 ft | 276 kts | 206° |
| 2026-04-24 03:18 | 34.92670 | -80.93156 | 9381 ft | 278 kts | 232° |
| 2026-04-24 03:18 | 34.91803 | -80.95254 | 9937 ft | 281 kts | 256° |
| 2026-04-24 03:19 | 34.91432 | -80.97601 | 10470 ft | 284 kts | 261° |
| 2026-04-24 03:19 | 34.91258 | -81.00039 | 10757 ft | 300 kts | 276° |
| 2026-04-24 03:19 | 34.92025 | -81.02461 | 10885 ft | 320 kts | 307° |
| 2026-04-24 03:19 | 34.93775 | -81.04221 | 11031 ft | 338 kts | 334° |
| 2026-04-24 03:20 | 34.95961 | -81.05443 | 11244 ft | 353 kts | 334° |
| 2026-04-24 03:20 | 34.98209 | -81.06753 | 11681 ft | 360 kts | 333° |
| 2026-04-24 03:20 | 35.00456 | -81.08144 | 12267 ft | 363 kts | 332° |
| 2026-04-24 03:20 | 35.02691 | -81.09599 | 12870 ft | 366 kts | 330° |
| 2026-04-24 03:21 | 35.04933 | -81.11111 | 13467 ft | 369 kts | 330° |
| 2026-04-24 03:21 | 35.07185 | -81.12665 | 14017 ft | 373 kts | 329° |
| 2026-04-24 03:21 | 35.09445 | -81.14244 | 14591 ft | 375 kts | 329° |
| 2026-04-24 03:21 | 35.11718 | -81.15845 | 15197 ft | 377 kts | 329° |
| 2026-04-24 03:22 | 35.13994 | -81.17453 | 15794 ft | 379 kts | 329° |
| 2026-04-24 03:22 | 35.16261 | -81.19057 | 16361 ft | 382 kts | 329° |
| 2026-04-24 03:22 | 35.18571 | -81.20693 | 16925 ft | 385 kts | 329° |
| 2026-04-24 03:22 | 35.20898 | -81.22342 | 17468 ft | 388 kts | 329° |
| 2026-04-24 03:23 | 35.23240 | -81.24003 | 18006 ft | 391 kts | 329° |
| 2026-04-24 03:23 | 35.25601 | -81.25678 | 18497 ft | 394 kts | 329° |
| 2026-04-24 03:23 | 35.27981 | -81.27369 | 18948 ft | 396 kts | 329° |
| 2026-04-24 03:23 | 35.30380 | -81.29072 | 19394 ft | 399 kts | 329° |
| 2026-04-24 03:24 | 35.32796 | -81.30790 | 19816 ft | 403 kts | 329° |
| 2026-04-24 03:24 | 35.35226 | -81.32519 | 20296 ft | 405 kts | 329° |
| 2026-04-24 03:24 | 35.37667 | -81.34256 | 20767 ft | 407 kts | 329° |
| 2026-04-24 03:24 | 35.40125 | -81.36007 | 21223 ft | 410 kts | 329° |
| 2026-04-24 03:25 | 35.42595 | -81.37768 | 21651 ft | 412 kts | 329° |
| 2026-04-24 03:25 | 35.45085 | -81.39545 | 22076 ft | 415 kts | 329° |
| 2026-04-24 03:25 | 35.47583 | -81.41329 | 22508 ft | 417 kts | 329° |
| 2026-04-24 03:25 | 35.50103 | -81.43129 | 22927 ft | 419 kts | 329° |
| 2026-04-24 03:26 | 35.52614 | -81.44974 | 23336 ft | 422 kts | 324° |
| 2026-04-24 03:26 | 35.54868 | -81.47281 | 23698 ft | 423 kts | 314° |
| 2026-04-24 03:26 | 35.56762 | -81.50051 | 24051 ft | 424 kts | 304° |
| 2026-04-24 03:26 | 35.58243 | -81.53191 | 24418 ft | 426 kts | 296° |
| 2026-04-24 03:27 | 35.59564 | -81.56454 | 24774 ft | 428 kts | 296° |
| 2026-04-24 03:27 | 35.60909 | -81.59729 | 25112 ft | 430 kts | 297° |
| 2026-04-24 03:27 | 35.62289 | -81.63002 | 25462 ft | 432 kts | 298° |
| 2026-04-24 03:27 | 35.63701 | -81.66275 | 25806 ft | 434 kts | 298° |
| 2026-04-24 03:28 | 35.65110 | -81.69514 | 26092 ft | 437 kts | 298° |
| 2026-04-24 03:28 | 35.66545 | -81.72820 | 26415 ft | 439 kts | 298° |
| 2026-04-24 03:28 | 35.67985 | -81.76149 | 26758 ft | 441 kts | 298° |
| 2026-04-24 03:28 | 35.69424 | -81.79487 | 27084 ft | 443 kts | 298° |
| 2026-04-24 03:29 | 35.70868 | -81.82844 | 27398 ft | 445 kts | 298° |
| 2026-04-24 03:29 | 35.72317 | -81.86215 | 27700 ft | 447 kts | 298° |
| 2026-04-24 03:29 | 35.73837 | -81.89559 | 27985 ft | 449 kts | 304° |
| 2026-04-24 03:29 | 35.75743 | -81.92607 | 28273 ft | 450 kts | 312° |
| 2026-04-24 03:30 | 35.77999 | -81.95282 | 28579 ft | 451 kts | 321° |
| 2026-04-24 03:30 | 35.80484 | -81.97651 | 28952 ft | 451 kts | 323° |
| 2026-04-24 03:30 | 35.82985 | -81.99975 | 29425 ft | 449 kts | 323° |
| 2026-04-24 03:30 | 35.85474 | -82.02281 | 29913 ft | 447 kts | 323° |
| 2026-04-24 03:31 | 35.87953 | -82.04590 | 30328 ft | 445 kts | 323° |
| 2026-04-24 03:31 | 35.90416 | -82.06903 | 30681 ft | 444 kts | 322° |
| 2026-04-24 03:31 | 35.92867 | -82.09218 | 31035 ft | 443 kts | 322° |
| 2026-04-24 03:31 | 35.95310 | -82.11537 | 31418 ft | 442 kts | 322° |
| 2026-04-24 03:32 | 35.97739 | -82.13849 | 31778 ft | 440 kts | 322° |
| 2026-04-24 03:32 | 36.00127 | -82.16126 | 32123 ft | 439 kts | 322° |
| 2026-04-24 03:32 | 36.02541 | -82.18430 | 32515 ft | 437 kts | 322° |
| 2026-04-24 03:32 | 36.04946 | -82.20727 | 32886 ft | 435 kts | 322° |
| 2026-04-24 03:33 | 36.07338 | -82.23014 | 33187 ft | 435 kts | 321° |
| 2026-04-24 03:33 | 36.09733 | -82.25304 | 33464 ft | 434 kts | 321° |
| 2026-04-24 03:33 | 36.12124 | -82.27592 | 33785 ft | 433 kts | 321° |
| 2026-04-24 03:33 | 36.14504 | -82.29872 | 34033 ft | 433 kts | 321° |
| 2026-04-24 03:34 | 36.16897 | -82.32166 | 34004 ft | 436 kts | 321° |
| 2026-04-24 03:34 | 36.21667 | -82.36744 | 34013 ft | 432 kts | 321° |
| 2026-04-24 03:35 | 36.26409 | -82.41300 | 34031 ft | 430 kts | 321° |
| 2026-04-24 03:35 | 36.31121 | -82.45837 | 34040 ft | 428 kts | 321° |
| 2026-04-24 03:36 | 36.35819 | -82.50367 | 34010 ft | 427 kts | 321° |
| 2026-04-24 03:36 | 36.40483 | -82.54871 | 34009 ft | 428 kts | 321° |
| 2026-04-24 03:37 | 36.45191 | -82.59424 | 34006 ft | 429 kts | 321° |
| 2026-04-24 03:37 | 36.49911 | -82.63998 | 33995 ft | 431 kts | 321° |
| 2026-04-24 03:38 | 36.54644 | -82.68590 | 33998 ft | 432 kts | 321° |
| 2026-04-24 03:38 | 36.59391 | -82.73203 | 33987 ft | 433 kts | 321° |
| 2026-04-24 03:39 | 36.64146 | -82.77832 | 33987 ft | 433 kts | 321° |
| 2026-04-24 03:39 | 36.68895 | -82.82463 | 33985 ft | 433 kts | 321° |
| 2026-04-24 03:40 | 36.73602 | -82.87060 | 33994 ft | 432 kts | 321° |
| 2026-04-24 03:40 | 36.78364 | -82.91655 | 34002 ft | 432 kts | 321° |
| 2026-04-24 03:41 | 36.83134 | -82.96211 | 33994 ft | 431 kts | 321° |
| 2026-04-24 03:41 | 36.87675 | -83.01065 | 33992 ft | 429 kts | 310° |
| 2026-04-24 03:42 | 36.91053 | -83.07155 | 34009 ft | 426 kts | 301° |
| 2026-04-24 03:42 | 36.94115 | -83.13499 | 34004 ft | 426 kts | 301° |
| 2026-04-24 03:43 | 36.97218 | -83.19806 | 33994 ft | 426 kts | 301° |
| 2026-04-24 03:43 | 37.00337 | -83.26113 | 33993 ft | 426 kts | 301° |
| 2026-04-24 03:44 | 37.03427 | -83.32386 | 33999 ft | 427 kts | 301° |
| 2026-04-24 03:44 | 37.06544 | -83.38729 | 33999 ft | 428 kts | 301° |
| 2026-04-24 03:45 | 37.09662 | -83.45087 | 33997 ft | 429 kts | 301° |
| 2026-04-24 03:45 | 37.12782 | -83.51459 | 33991 ft | 429 kts | 301° |
| 2026-04-24 03:46 | 37.15904 | -83.57846 | 33983 ft | 429 kts | 300° |
| 2026-04-24 03:46 | 37.19020 | -83.64238 | 33990 ft | 430 kts | 300° |
| 2026-04-24 03:47 | 37.22138 | -83.70643 | 33996 ft | 430 kts | 300° |
| 2026-04-24 03:47 | 37.25252 | -83.77053 | 33998 ft | 430 kts | 300° |
| 2026-04-24 03:48 | 37.28364 | -83.83470 | 33985 ft | 430 kts | 300° |
| 2026-04-24 03:48 | 37.31470 | -83.89890 | 33988 ft | 430 kts | 300° |
| 2026-04-24 03:49 | 37.34555 | -83.96275 | 33991 ft | 430 kts | 300° |
| 2026-04-24 03:49 | 37.37670 | -84.02739 | 33986 ft | 429 kts | 300° |
| 2026-04-24 03:50 | 37.40755 | -84.09152 | 33991 ft | 428 kts | 300° |
| 2026-04-24 03:50 | 37.43834 | -84.15564 | 33999 ft | 427 kts | 300° |
| 2026-04-24 03:51 | 37.46880 | -84.21919 | 34013 ft | 427 kts | 299° |
| 2026-04-24 03:51 | 37.49937 | -84.28320 | 34016 ft | 426 kts | 299° |
| 2026-04-24 03:52 | 37.52977 | -84.34736 | 34013 ft | 426 kts | 299° |
| 2026-04-24 03:52 | 37.56014 | -84.41161 | 33989 ft | 426 kts | 298° |
| 2026-04-24 03:53 | 37.59047 | -84.47589 | 34008 ft | 427 kts | 298° |
| 2026-04-24 03:53 | 37.62081 | -84.54027 | 34005 ft | 427 kts | 298° |
| 2026-04-24 03:54 | 37.65114 | -84.60477 | 34007 ft | 427 kts | 298° |
| 2026-04-24 03:54 | 37.68149 | -84.66943 | 34010 ft | 427 kts | 298° |
| 2026-04-24 03:55 | 37.71175 | -84.73402 | 34004 ft | 428 kts | 297° |
| 2026-04-24 03:55 | 37.73915 | -84.80008 | 34001 ft | 426 kts | 294° |
| 2026-04-24 03:56 | 37.76498 | -84.86748 | 34000 ft | 426 kts | 293° |
| 2026-04-24 03:56 | 37.79080 | -84.93493 | 33994 ft | 426 kts | 294° |
| 2026-04-24 03:57 | 37.81675 | -85.00218 | 33978 ft | 426 kts | 294° |
| 2026-04-24 03:57 | 37.84276 | -85.06941 | 33969 ft | 425 kts | 294° |
| 2026-04-24 03:58 | 37.86875 | -85.13663 | 33980 ft | 425 kts | 293° |
| 2026-04-24 03:58 | 37.89453 | -85.20346 | 33973 ft | 425 kts | 293° |
| 2026-04-24 03:59 | 37.92044 | -85.27076 | 33964 ft | 425 kts | 293° |
| 2026-04-24 03:59 | 37.94630 | -85.33810 | 33952 ft | 425 kts | 293° |
| 2026-04-24 04:00 | 37.97210 | -85.40545 | 33956 ft | 424 kts | 293° |
| 2026-04-24 04:00 | 37.99352 | -85.46147 | 33952 ft | 425 kts | 293° |
| 2026-04-24 04:01 | 38.01925 | -85.52890 | 33955 ft | 425 kts | 293° |
| 2026-04-24 04:01 | 38.04495 | -85.59639 | 33952 ft | 425 kts | 293° |
| 2026-04-24 04:02 | 38.07064 | -85.66400 | 33952 ft | 425 kts | 293° |
| 2026-04-24 04:02 | 38.09632 | -85.73174 | 33954 ft | 426 kts | 293° |
| 2026-04-24 04:03 | 38.12199 | -85.79959 | 33962 ft | 426 kts | 293° |
| 2026-04-24 04:03 | 38.14759 | -85.86743 | 33953 ft | 426 kts | 293° |
| 2026-04-24 04:04 | 38.17318 | -85.93539 | 33955 ft | 426 kts | 293° |
| 2026-04-24 04:04 | 38.19872 | -86.00335 | 33946 ft | 426 kts | 292° |
| 2026-04-24 04:05 | 38.22407 | -86.07098 | 33944 ft | 426 kts | 292° |
| 2026-04-24 04:05 | 38.24952 | -86.13901 | 33940 ft | 426 kts | 292° |
| 2026-04-24 04:06 | 38.27491 | -86.20704 | 33938 ft | 426 kts | 293° |
| 2026-04-24 04:06 | 38.30025 | -86.27509 | 33943 ft | 425 kts | 293° |
| 2026-04-24 04:07 | 38.32556 | -86.34321 | 33940 ft | 425 kts | 293° |
| 2026-04-24 04:07 | 38.35080 | -86.41130 | 33944 ft | 425 kts | 293° |
| 2026-04-24 04:08 | 38.37604 | -86.47953 | 33948 ft | 425 kts | 293° |
| 2026-04-24 04:08 | 38.40108 | -86.54738 | 33953 ft | 425 kts | 293° |
| 2026-04-24 04:09 | 38.42622 | -86.61567 | 33950 ft | 426 kts | 294° |
| 2026-04-24 04:09 | 38.45137 | -86.68412 | 33955 ft | 426 kts | 293° |
| 2026-04-24 04:10 | 38.47653 | -86.75278 | 33950 ft | 427 kts | 293° |
| 2026-04-24 04:10 | 38.50167 | -86.82152 | 33950 ft | 427 kts | 293° |
| 2026-04-24 04:11 | 38.53935 | -86.92486 | 33941 ft | 428 kts | 293° |
| 2026-04-24 04:11 | 38.56444 | -86.99388 | 33925 ft | 429 kts | 294° |
| 2026-04-24 04:12 | 38.58956 | -87.06312 | 33922 ft | 429 kts | 294° |
| 2026-04-24 04:12 | 38.61465 | -87.13246 | 33912 ft | 430 kts | 294° |
| 2026-04-24 04:13 | 38.63958 | -87.20148 | 33910 ft | 430 kts | 294° |
| 2026-04-24 04:13 | 38.66140 | -87.27251 | 33910 ft | 429 kts | 285° |
| 2026-04-24 04:14 | 38.67722 | -87.34612 | 33912 ft | 429 kts | 284° |
| 2026-04-24 04:14 | 38.69277 | -87.41979 | 33909 ft | 429 kts | 285° |
| 2026-04-24 04:15 | 38.70864 | -87.49341 | 33918 ft | 429 kts | 285° |
| 2026-04-24 04:15 | 38.72464 | -87.56691 | 33915 ft | 429 kts | 285° |
| 2026-04-24 04:16 | 38.74066 | -87.64044 | 33916 ft | 428 kts | 285° |
| 2026-04-24 04:16 | 38.75660 | -87.71393 | 33997 ft | 428 kts | 285° |
| 2026-04-24 04:17 | 38.77250 | -87.78745 | 33991 ft | 428 kts | 285° |
| 2026-04-24 04:17 | 38.78835 | -87.86101 | 33983 ft | 428 kts | 285° |
| 2026-04-24 04:18 | 38.80403 | -87.93408 | 33958 ft | 428 kts | 285° |
| 2026-04-24 04:18 | 38.81978 | -88.00765 | 33934 ft | 428 kts | 285° |
| 2026-04-24 04:19 | 38.83547 | -88.08123 | 33902 ft | 428 kts | 285° |
| 2026-04-24 04:19 | 38.85112 | -88.15488 | 33899 ft | 428 kts | 284° |
| 2026-04-24 04:20 | 38.86673 | -88.22858 | 33899 ft | 428 kts | 284° |
| 2026-04-24 04:20 | 38.88230 | -88.30235 | 33902 ft | 428 kts | 284° |
| 2026-04-24 04:21 | 38.89787 | -88.37636 | 33881 ft | 429 kts | 284° |
| 2026-04-24 04:21 | 38.91330 | -88.44988 | 33871 ft | 430 kts | 284° |
| 2026-04-24 04:22 | 38.93159 | -88.52293 | 33859 ft | 430 kts | 291° |
| 2026-04-24 04:22 | 38.95453 | -88.59405 | 33844 ft | 431 kts | 292° |
| 2026-04-24 04:23 | 38.97779 | -88.66524 | 33849 ft | 432 kts | 291° |
| 2026-04-24 04:23 | 39.00066 | -88.73663 | 33846 ft | 432 kts | 291° |
| 2026-04-24 04:24 | 39.02314 | -88.80776 | 33844 ft | 432 kts | 291° |
| 2026-04-24 04:24 | 39.04566 | -88.87947 | 33855 ft | 432 kts | 291° |
| 2026-04-24 04:25 | 39.06814 | -88.95121 | 33822 ft | 432 kts | 291° |
| 2026-04-24 04:25 | 39.09056 | -89.02296 | 33836 ft | 431 kts | 291° |
| 2026-04-24 04:26 | 39.11292 | -89.09467 | 33820 ft | 431 kts | 291° |
| 2026-04-24 04:26 | 39.13521 | -89.16636 | 33823 ft | 431 kts | 291° |
| 2026-04-24 04:27 | 39.15745 | -89.23806 | 33820 ft | 430 kts | 291° |
| 2026-04-24 04:27 | 39.17959 | -89.30965 | 33818 ft | 430 kts | 291° |
| 2026-04-24 04:28 | 39.20168 | -89.38122 | 33820 ft | 429 kts | 291° |
| 2026-04-24 04:28 | 39.22354 | -89.45225 | 33814 ft | 428 kts | 291° |
| 2026-04-24 04:29 | 39.24543 | -89.52359 | 33805 ft | 427 kts | 291° |
| 2026-04-24 04:29 | 39.26724 | -89.59481 | 33797 ft | 427 kts | 291° |
| 2026-04-24 04:30 | 39.28896 | -89.66595 | 33812 ft | 426 kts | 291° |
| 2026-04-24 04:30 | 39.31063 | -89.73712 | 33802 ft | 426 kts | 291° |
| 2026-04-24 04:31 | 39.33226 | -89.80832 | 33799 ft | 426 kts | 291° |
| 2026-04-24 04:31 | 39.35385 | -89.87960 | 33806 ft | 426 kts | 291° |
| 2026-04-24 04:32 | 39.37540 | -89.95089 | 33797 ft | 426 kts | 291° |
| 2026-04-24 04:32 | 39.39673 | -90.02168 | 33795 ft | 425 kts | 291° |
| 2026-04-24 04:33 | 39.41814 | -90.09293 | 33788 ft | 425 kts | 291° |
| 2026-04-24 04:33 | 39.43950 | -90.16421 | 33786 ft | 425 kts | 291° |
| 2026-04-24 04:34 | 39.46081 | -90.23546 | 33789 ft | 424 kts | 291° |
| 2026-04-24 04:34 | 39.48205 | -90.30668 | 33789 ft | 424 kts | 291° |
| 2026-04-24 04:35 | 39.50323 | -90.37791 | 33786 ft | 424 kts | 291° |
| 2026-04-24 04:35 | 39.52433 | -90.44905 | 33788 ft | 423 kts | 290° |
| 2026-04-24 04:36 | 39.54537 | -90.52018 | 33786 ft | 422 kts | 290° |
| 2026-04-24 04:36 | 39.56631 | -90.59115 | 33793 ft | 421 kts | 290° |
| 2026-04-24 04:37 | 39.58700 | -90.66150 | 33808 ft | 420 kts | 290° |
| 2026-04-24 04:37 | 39.60777 | -90.73227 | 33805 ft | 420 kts | 290° |
| 2026-04-24 04:38 | 39.62850 | -90.80312 | 33797 ft | 419 kts | 289° |
| 2026-04-24 04:38 | 39.64915 | -90.87384 | 33807 ft | 419 kts | 289° |
| 2026-04-24 04:39 | 39.66977 | -90.94467 | 34102 ft | 420 kts | 289° |
| 2026-04-24 04:39 | 39.69038 | -91.01565 | 34121 ft | 420 kts | 289° |
| 2026-04-24 04:40 | 39.71109 | -91.08670 | 34121 ft | 421 kts | 290° |
| 2026-04-24 04:40 | 39.73438 | -91.15663 | 34129 ft | 422 kts | 293° |
| 2026-04-24 04:41 | 39.75856 | -91.22588 | 34059 ft | 424 kts | 293° |
| 2026-04-24 04:41 | 39.77086 | -91.26131 | 33783 ft | 425 kts | 292° |
| 2026-04-24 04:41 | 39.78282 | -91.29599 | 33789 ft | 426 kts | 292° |
| 2026-04-24 04:42 | 39.80698 | -91.36661 | 33795 ft | 428 kts | 292° |
| 2026-04-24 04:42 | 39.83113 | -91.43769 | 33782 ft | 430 kts | 292° |
| 2026-04-24 04:43 | 39.85527 | -91.50897 | 33783 ft | 431 kts | 292° |
| 2026-04-24 04:43 | 39.87941 | -91.58033 | 33775 ft | 431 kts | 291° |
| 2026-04-24 04:44 | 39.90346 | -91.65173 | 33753 ft | 429 kts | 291° |
| 2026-04-24 04:44 | 39.92723 | -91.72245 | 33743 ft | 427 kts | 291° |
| 2026-04-24 04:45 | 39.95098 | -91.79324 | 33736 ft | 425 kts | 291° |
| 2026-04-24 04:45 | 39.97457 | -91.86375 | 33736 ft | 424 kts | 291° |
| 2026-04-24 04:46 | 39.99802 | -91.93409 | 33739 ft | 422 kts | 290° |
| 2026-04-24 04:46 | 40.02140 | -92.00434 | 33746 ft | 422 kts | 289° |
| 2026-04-24 04:47 | 40.04474 | -92.07461 | 33733 ft | 422 kts | 289° |
| 2026-04-24 04:47 | 40.06793 | -92.14458 | 33732 ft | 422 kts | 289° |
| 2026-04-24 04:48 | 40.09119 | -92.21500 | 33769 ft | 423 kts | 289° |
| 2026-04-24 04:48 | 40.11443 | -92.28554 | 33783 ft | 423 kts | 289° |
| 2026-04-24 04:49 | 40.13772 | -92.35634 | 33798 ft | 424 kts | 288° |
| 2026-04-24 04:49 | 40.15706 | -92.41534 | 33804 ft | 425 kts | 288° |
| 2026-04-24 04:50 | 40.18411 | -92.49804 | 33807 ft | 426 kts | 288° |
| 2026-04-24 04:50 | 40.20736 | -92.56930 | 33809 ft | 426 kts | 288° |
| 2026-04-24 04:51 | 40.23063 | -92.64080 | 33796 ft | 427 kts | 288° |
| 2026-04-24 04:51 | 40.24999 | -92.70043 | 33790 ft | 428 kts | 287° |
| 2026-04-24 04:52 | 40.27330 | -92.77242 | 33768 ft | 430 kts | 287° |
| 2026-04-24 04:52 | 40.29662 | -92.84464 | 33721 ft | 431 kts | 287° |
| 2026-04-24 04:53 | 40.31991 | -92.91692 | 33727 ft | 431 kts | 287° |
| 2026-04-24 04:53 | 40.34317 | -92.98930 | 33729 ft | 431 kts | 287° |
| 2026-04-24 04:54 | 40.36638 | -93.06172 | 33768 ft | 431 kts | 285° |
| 2026-04-24 04:54 | 40.38955 | -93.13419 | 33739 ft | 431 kts | 285° |
| 2026-04-24 04:55 | 40.41249 | -93.20620 | 33728 ft | 430 kts | 285° |
| 2026-04-24 04:55 | 40.43554 | -93.27865 | 33747 ft | 429 kts | 285° |
| 2026-04-24 04:56 | 40.45696 | -93.35154 | 33730 ft | 425 kts | 280° |
| 2026-04-24 04:56 | 40.47393 | -93.42583 | 33733 ft | 425 kts | 278° |
| 2026-04-24 04:57 | 40.49052 | -93.50062 | 33740 ft | 427 kts | 279° |
| 2026-04-24 04:57 | 40.50755 | -93.57563 | 33735 ft | 429 kts | 279° |
| 2026-04-24 04:58 | 40.52481 | -93.65087 | 33734 ft | 431 kts | 279° |
| 2026-04-24 04:58 | 40.54210 | -93.72637 | 33733 ft | 432 kts | 279° |
| 2026-04-24 04:59 | 40.55927 | -93.80160 | 33763 ft | 432 kts | 279° |
| 2026-04-24 04:59 | 40.56792 | -93.83971 | 33366 ft | 440 kts | 278° |
| 2026-04-24 04:59 | 40.57671 | -93.87853 | 32729 ft | 443 kts | 278° |
| 2026-04-24 05:00 | 40.58553 | -93.91736 | 31979 ft | 443 kts | 278° |
| 2026-04-24 05:00 | 40.59434 | -93.95619 | 31245 ft | 444 kts | 279° |
| 2026-04-24 05:00 | 40.60251 | -93.99525 | 30538 ft | 441 kts | 276° |
| 2026-04-24 05:00 | 40.60937 | -94.03437 | 29952 ft | 437 kts | 275° |
| 2026-04-24 05:01 | 40.61564 | -94.07336 | 29329 ft | 433 kts | 275° |
| 2026-04-24 05:01 | 40.62172 | -94.11202 | 28737 ft | 429 kts | 275° |
| 2026-04-24 05:01 | 40.62778 | -94.15030 | 28148 ft | 425 kts | 275° |
| 2026-04-24 05:01 | 40.63387 | -94.18829 | 27587 ft | 421 kts | 275° |
| 2026-04-24 05:02 | 40.63997 | -94.22578 | 27056 ft | 418 kts | 275° |
| 2026-04-24 05:02 | 40.64606 | -94.26308 | 26504 ft | 414 kts | 275° |
| 2026-04-24 05:02 | 40.65211 | -94.29999 | 25952 ft | 411 kts | 275° |
| 2026-04-24 05:02 | 40.65812 | -94.33663 | 25392 ft | 408 kts | 275° |
| 2026-04-24 05:03 | 40.66409 | -94.37313 | 24842 ft | 406 kts | 275° |
| 2026-04-24 05:03 | 40.67001 | -94.40940 | 24291 ft | 404 kts | 275° |
| 2026-04-24 05:03 | 40.67589 | -94.44546 | 23746 ft | 402 kts | 275° |
| 2026-04-24 05:03 | 40.68173 | -94.48132 | 23179 ft | 400 kts | 276° |
| 2026-04-24 05:04 | 40.68753 | -94.51705 | 22569 ft | 397 kts | 276° |
| 2026-04-24 05:04 | 40.69320 | -94.55199 | 22023 ft | 392 kts | 276° |
| 2026-04-24 05:04 | 40.69885 | -94.58696 | 21519 ft | 388 kts | 275° |
| 2026-04-24 05:04 | 40.70439 | -94.62148 | 20974 ft | 383 kts | 275° |
| 2026-04-24 05:05 | 40.70990 | -94.65564 | 20457 ft | 378 kts | 276° |
| 2026-04-24 05:05 | 40.71535 | -94.68938 | 19968 ft | 374 kts | 276° |
| 2026-04-24 05:05 | 40.72070 | -94.72269 | 19473 ft | 369 kts | 277° |
| 2026-04-24 05:05 | 40.72597 | -94.75559 | 18977 ft | 364 kts | 277° |
| 2026-04-24 05:06 | 40.73115 | -94.78808 | 18499 ft | 360 kts | 278° |
| 2026-04-24 05:06 | 40.73626 | -94.82012 | 18013 ft | 352 kts | 278° |
| 2026-04-24 05:06 | 40.74115 | -94.85075 | 17480 ft | 340 kts | 279° |
| 2026-04-24 05:06 | 40.74591 | -94.88063 | 17021 ft | 327 kts | 279° |
| 2026-04-24 05:07 | 40.75051 | -94.90961 | 16580 ft | 321 kts | 279° |
| 2026-04-24 05:07 | 40.75504 | -94.93831 | 16197 ft | 316 kts | 279° |
| 2026-04-24 05:07 | 40.75946 | -94.96638 | 15849 ft | 311 kts | 279° |
| 2026-04-24 05:07 | 40.76384 | -94.99416 | 15456 ft | 308 kts | 279° |
| 2026-04-24 05:08 | 40.76819 | -95.02174 | 15020 ft | 306 kts | 280° |
| 2026-04-24 05:08 | 40.77252 | -95.04926 | 14571 ft | 305 kts | 280° |
| 2026-04-24 05:08 | 40.77732 | -95.07650 | 14150 ft | 305 kts | 288° |
| 2026-04-24 05:08 | 40.78739 | -95.10138 | 13427 ft | 315 kts | 304° |
| 2026-04-24 05:09 | 40.80101 | -95.12429 | 12871 ft | 318 kts | 307° |
| 2026-04-24 05:09 | 40.81492 | -95.14696 | 12380 ft | 317 kts | 307° |
| 2026-04-24 05:09 | 40.82864 | -95.16928 | 11913 ft | 316 kts | 307° |
| 2026-04-24 05:09 | 40.84258 | -95.19211 | 11466 ft | 315 kts | 307° |
| 2026-04-24 05:10 | 40.85623 | -95.21460 | 11031 ft | 313 kts | 307° |
| 2026-04-24 05:10 | 40.86977 | -95.23702 | 10597 ft | 312 kts | 308° |
| 2026-04-24 05:10 | 40.88283 | -95.25873 | 10494 ft | 300 kts | 307° |
| 2026-04-24 05:10 | 40.89560 | -95.27999 | 10349 ft | 290 kts | 307° |
| 2026-04-24 05:11 | 40.90793 | -95.30055 | 10217 ft | 280 kts | 308° |
| 2026-04-24 05:11 | 40.91982 | -95.32040 | 10105 ft | 270 kts | 307° |
| 2026-04-24 05:11 | 40.93130 | -95.33958 | 9985 ft | 262 kts | 307° |
| 2026-04-24 05:11 | 40.94256 | -95.35842 | 9717 ft | 259 kts | 306° |
| 2026-04-24 05:12 | 40.95369 | -95.37705 | 9414 ft | 258 kts | 306° |
| 2026-04-24 05:12 | 40.96476 | -95.39559 | 9145 ft | 254 kts | 307° |
| 2026-04-24 05:12 | 40.97570 | -95.41392 | 8816 ft | 254 kts | 307° |
| 2026-04-24 05:12 | 40.98659 | -95.43217 | 8556 ft | 251 kts | 308° |
| 2026-04-24 05:13 | 41.00784 | -95.46785 | 8065 ft | 245 kts | 308° |
| 2026-04-24 05:13 | 41.01838 | -95.48557 | 7774 ft | 244 kts | 308° |
| 2026-04-24 05:13 | 41.02886 | -95.50320 | 7486 ft | 243 kts | 309° |
| 2026-04-24 05:14 | 41.03932 | -95.52082 | 7197 ft | 243 kts | 309° |
| 2026-04-24 05:14 | 41.04980 | -95.53847 | 6912 ft | 245 kts | 309° |
| 2026-04-24 05:14 | 41.06045 | -95.55641 | 6611 ft | 251 kts | 310° |
| 2026-04-24 05:14 | 41.07128 | -95.57462 | 6311 ft | 252 kts | 310° |
| 2026-04-24 05:15 | 41.08213 | -95.59291 | 5989 ft | 252 kts | 311° |
| 2026-04-24 05:15 | 41.09294 | -95.61117 | 5673 ft | 252 kts | 311° |
| 2026-04-24 05:15 | 41.10375 | -95.62946 | 5380 ft | 251 kts | 311° |
| 2026-04-24 05:15 | 41.11450 | -95.64765 | 5092 ft | 250 kts | 310° |
| 2026-04-24 05:16 | 41.12506 | -95.66554 | 4970 ft | 242 kts | 311° |
| 2026-04-24 05:16 | 41.13525 | -95.68279 | 4859 ft | 233 kts | 311° |
| 2026-04-24 05:16 | 41.14504 | -95.69937 | 4791 ft | 222 kts | 311° |
| 2026-04-24 05:16 | 41.15422 | -95.71496 | 4692 ft | 207 kts | 310° |
| 2026-04-24 05:17 | 41.16281 | -95.72954 | 4597 ft | 194 kts | 311° |
| 2026-04-24 05:17 | 41.17036 | -95.74350 | 4508 ft | 180 kts | 305° |
| 2026-04-24 05:17 | 41.17650 | -95.75697 | 4325 ft | 168 kts | 305° |
| 2026-04-24 05:17 | 41.18267 | -95.77051 | 3868 ft | 172 kts | 307° |
| 2026-04-24 05:18 | 41.18872 | -95.78425 | 3538 ft | 170 kts | 306° |
| 2026-04-24 05:18 | 41.19625 | -95.79476 | 3305 ft | 148 kts | 340° |
| 2026-04-24 05:18 | 41.20525 | -95.79998 | 3114 ft | 138 kts | 321° |
| 2026-04-24 05:18 | 41.21124 | -95.80925 | 2942 ft | 131 kts | 328° |
| 2026-04-24 05:19 | 41.21863 | -95.81523 | 2788 ft | 125 kts | 330° |
| 2026-04-24 05:19 | 41.22562 | -95.82194 | 2629 ft | 126 kts | 329° |
| 2026-04-24 05:19 | 41.23271 | -95.82875 | 2463 ft | 127 kts | 328° |
| 2026-04-24 05:19 | 41.23985 | -95.83558 | 2290 ft | 126 kts | 328° |
| 2026-04-24 05:20 | 41.24696 | -95.84234 | 2189 ft | 125 kts | 328° |
| 2026-04-24 05:20 | 41.25379 | -95.84936 | 2003 ft | 124 kts | 327° |
| 2026-04-24 05:20 | 41.26096 | -95.85604 | 1749 ft | 131 kts | 329° |
| 2026-04-24 05:20 | 41.26863 | -95.86291 | 1605 ft | 132 kts | 327° |
| 2026-04-24 05:21 | 41.27604 | -95.87003 | 1477 ft | 133 kts | 327° |
| 2026-04-24 05:21 | 41.28352 | -95.87728 | 1257 ft | 135 kts | 326° |
| 2026-04-24 05:21 | 41.29131 | -95.88469 | 1056 ft | 138 kts | 328° |
| 2026-04-24 05:21 | 41.29878 | -95.89174 | 990 ft | 118 kts | 323° |
| 2026-04-24 05:22 | 41.30420 | -95.89693 | 989 ft | 74 kts | 324° |
| 2026-04-24 05:22 | 41.30718 | -95.89978 | 986 ft | 31 kts | 325° |
| 2026-04-24 05:22 | 41.30799 | -95.90083 | 988 ft | 13 kts | 282° |
| 2026-04-24 05:22 | 41.30753 | -95.90168 | 983 ft | 12 kts | 187° |
| 2026-04-24 05:23 | 41.30678 | -95.90118 | 985 ft | 12 kts | 143° |
| 2026-04-24 05:23 | 41.30610 | -95.90052 | 989 ft | 12 kts | 144° |
| 2026-04-24 05:23 | 41.30544 | -95.89989 | 990 ft | 12 kts | 144° |
| 2026-04-24 05:23 | 41.30479 | -95.89929 | 993 ft | 11 kts | 144° |
| 2026-04-24 05:24 | 41.30416 | -95.89869 | 987 ft | 11 kts | 144° |
| 2026-04-24 05:24 | 41.30356 | -95.89811 | 987 ft | 11 kts | 144° |
| 2026-04-24 05:24 | 41.30296 | -95.89755 | 992 ft | 10 kts | 144° |
| 2026-04-24 05:24 | 41.30239 | -95.89700 | 987 ft | 10 kts | 144° |
| 2026-04-24 05:25 | 41.30183 | -95.89648 | 990 ft | 10 kts | 144° |
| 2026-04-24 05:25 | 41.30124 | -95.89608 | 988 ft | 9 kts | 171° |
| 2026-04-24 05:25 | 41.30059 | -95.89607 | 985 ft | 9 kts | 180° |
| 2026-04-24 05:25 | 41.29992 | -95.89606 | 986 ft | 12 kts | 181° |
| 2026-04-24 05:26 | 41.29881 | -95.89608 | 988 ft | 14 kts | 180° |
| 2026-04-24 05:26 | 41.29807 | -95.89621 | 987 ft | 9 kts | 215° |
| 2026-04-24 05:26 | 41.29792 | -95.89655 | 990 ft | 0 kts | 252° |
| 2026-04-24 05:27 | 41.29784 | -95.89700 | 985 ft | 7 kts | 263° |
| 2026-04-24 05:27 | 41.29781 | -95.89751 | 987 ft | 0 kts | 264° |
| 2026-04-24 05:27 | 41.29780 | -95.89763 | 988 ft | 0 kts | 264° |